Time;durP1;ratioP1;P1;durP2;ratioP2;P2;SDS_P1;SDS_P2;PMS_P1;PMS_P2;Temp;Humidity;BMP_temperature;BMP_pressure;BME280_temperature;BME280_humidity;BME280_pressure;Samples;Min_cycle;Max_cycle;Signal;HPM_P1;HPM_P2
2023/05/22 00:01:13;;;;;;;;;16.67;14.00;;;;;17.89;56.94;101258.94;5095573;27;45521;-45
2023/05/22 00:03:39;;;;;;;;;38.33;28.67;;;;;17.93;56.94;101276.41;5097024;27;45394;-41
2023/05/22 00:06:08;;;;;;;;;41.67;33.33;;;;;17.93;56.88;101270.19;5097201;27;45395;-51
2023/05/22 00:08:34;;;;;;;;;14.33;13.33;;;;;17.88;56.57;101269.91;5096844;27;46204;-48
2023/05/22 00:11:00;;;;;;;;;42.33;33.00;;;;;17.83;57.06;101266.94;5097075;27;45324;-44
2023/05/22 00:13:25;;;;;;;;;58.00;43.00;;;;;17.81;56.88;101274.34;5097242;27;45324;-57
2023/05/22 00:15:52;;;;;;;;;21.00;18.33;;;;;17.74;56.93;101251.81;5097617;27;45332;-54
2023/05/22 00:18:18;;;;;;;;;12.00;12.00;;;;;17.69;56.69;101250.50;5095078;27;47547;-41
2023/05/22 00:20:45;;;;;;;;;15.67;14.33;;;;;17.70;57.08;101262.13;5096601;27;45363;-51
2023/05/22 00:23:11;;;;;;;;;50.33;36.67;;;;;17.69;57.11;101260.44;5096668;27;45488;-42
2023/05/22 00:25:36;;;;;;;;;18.00;17.33;;;;;17.64;56.78;101258.28;5096757;27;45382;-42
2023/05/22 00:28:02;;;;;;;;;19.67;17.67;;;;;17.60;57.54;101262.34;5095713;27;45437;-73
2023/05/22 00:30:27;;;;;;;;;66.33;47.00;;;;;17.57;57.07;101259.19;5096515;27;45511;-52
2023/05/22 00:32:52;;;;;;;;;54.00;42.00;;;;;17.54;57.41;101259.56;5097081;27;45331;-74
2023/05/22 00:35:18;;;;;;;;;64.50;49.50;;;;;17.42;57.51;101248.38;5097274;27;45434;-73
2023/05/22 00:37:46;;;;;;;;;23.00;19.00;;;;;17.45;57.67;101267.69;5096122;27;46147;-41
2023/05/22 00:40:14;;;;;;;;;16.33;16.00;;;;;17.43;57.46;101266.19;5097215;27;45379;-54
2023/05/22 00:42:40;;;;;;;;;20.67;16.00;;;;;17.47;57.45;101270.19;5096749;27;45260;-43
2023/05/22 00:45:06;;;;;;;;;16.00;14.33;;;;;17.49;57.63;101268.16;5096854;27;45433;-42
2023/05/22 00:47:32;;;;;;;;;16.67;14.67;;;;;17.50;57.57;101267.16;5096749;27;45473;-40
2023/05/22 00:49:58;;;;;;;;;16.00;15.33;;;;;17.49;57.37;101257.41;5096423;27;45506;-41
2023/05/22 00:52:24;;;;;;;;;18.67;16.33;;;;;17.44;57.32;101257.09;5096906;27;45343;-41
2023/05/22 00:54:52;;;;;;;;;18.33;14.00;;;;;17.45;57.50;101258.78;5096901;27;45470;-40
2023/05/22 00:57:20;;;;;;;;;14.67;13.00;;;;;17.42;57.46;101259.97;5096232;27;45390;-40
2023/05/22 00:59:47;;;;;;;;;18.33;12.00;;;;;17.40;57.43;101253.09;5096338;27;45434;-41
2023/05/22 01:02:15;;;;;;;;;23.67;16.33;;;;;17.37;57.50;101251.59;5096276;27;45836;-43
2023/05/22 01:04:47;;;;;;;;;19.33;15.00;;;;;17.37;57.15;101253.47;5096736;27;45277;-42
2023/05/22 01:07:16;;;;;;;;;23.33;17.00;;;;;17.34;57.77;101240.38;5096063;27;47283;-41
2023/05/22 01:09:42;;;;;;;;;22.00;18.00;;;;;17.35;57.17;101239.34;5096221;27;45527;-41
2023/05/22 01:12:26;;;;;;;;;18.33;16.00;;;;;17.34;57.47;101240.38;5095958;27;45475;-46
2023/05/22 01:15:30;;;;;;;;;14.00;9.33;;;;;17.29;57.29;101238.22;5096448;27;45310;-45
2023/05/22 01:18:18;;;;;;;;;24.00;20.33;;;;;17.22;57.37;101231.88;5095744;27;46320;-42
2023/05/22 01:20:51;;;;;;;;;25.33;15.67;;;;;17.28;57.27;101241.09;5096094;27;45228;-41
2023/05/22 01:23:35;;;;;;;;;17.67;15.00;;;;;17.26;57.32;101243.09;5095927;27;45465;-40
2023/05/22 01:26:18;;;;;;;;;17.67;14.67;;;;;17.24;57.01;101237.09;5096123;27;45548;-42
2023/05/22 01:28:52;;;;;;;;;18.67;14.00;;;;;17.18;57.62;101236.75;5095622;27;46383;-48
2023/05/22 01:31:23;;;;;;;;;14.00;12.67;;;;;17.14;57.51;101235.44;5095647;27;45496;-40
2023/05/22 01:33:55;;;;;;;;;16.33;15.00;;;;;17.10;57.60;101231.44;5095799;27;45496;-44
2023/05/22 01:36:23;;;;;;;;;13.67;12.33;;;;;17.11;57.93;101241.19;5095966;27;45315;-49
2023/05/22 01:38:50;;;;;;;;;17.00;14.33;;;;;17.11;57.53;101240.34;5096922;27;46263;-47
2023/05/22 01:41:16;;;;;;;;;15.67;12.00;;;;;17.12;57.67;101236.66;5099557;27;45316;-48
2023/05/22 01:43:42;;;;;;;;;16.00;12.00;;;;;17.12;57.85;101240.16;5099767;27;45382;-42
2023/05/22 01:46:07;;;;;;;;;16.33;14.00;;;;;17.12;57.43;101242.84;5099819;27;45545;-42
2023/05/22 01:48:33;;;;;;;;;12.00;11.67;;;;;17.13;57.59;101239.16;5099076;27;45366;-43
2023/05/22 01:51:19;;;;;;;;;14.67;12.33;;;;;17.13;57.52;101239.16;5099189;27;45481;-42
2023/05/22 01:54:08;;;;;;;;;17.00;12.00;;;;;17.10;57.01;101219.84;5099566;27;45420;-41
2023/05/22 01:56:45;;;;;;;;;10.33;10.00;;;;;17.14;57.15;101240.81;5098063;27;45558;-41
2023/05/22 01:59:36;;;;;;;;;14.67;13.00;;;;;17.12;57.02;101231.28;5098764;27;46153;-42
2023/05/22 02:02:05;;;;;;;;;18.00;11.67;;;;;17.10;57.48;101238.66;5098957;27;45509;-47
2023/05/22 02:04:34;;;;;;;;;17.33;13.33;;;;;17.09;57.59;101239.69;5098969;27;45529;-61
2023/05/22 02:07:01;;;;;;;;;13.33;13.00;;;;;17.09;57.27;101239.69;5099223;27;45417;-42
2023/05/22 02:09:30;;;;;;;;;16.00;14.00;;;;;17.10;57.00;101242.19;5098732;27;46129;-44
2023/05/22 02:11:57;;;;;;;;;12.00;12.00;;;;;17.13;57.52;101241.00;5098482;27;45693;-55
2023/05/22 02:14:23;;;;;;;;;15.00;12.00;;;;;17.13;57.64;101241.00;5099045;27;45343;-42
2023/05/22 02:16:49;;;;;;;;;18.00;12.33;;;;;17.12;57.52;101237.47;5099115;27;45365;-43
2023/05/22 02:19:14;;;;;;;;;16.33;13.00;;;;;17.14;57.70;101234.59;5098582;27;45855;-45
2023/05/22 02:21:39;;;;;;;;;16.33;14.67;;;;;17.14;57.48;101234.59;5098595;27;45457;-43
2023/05/22 02:24:05;;;;;;;;;17.00;11.67;;;;;17.12;57.42;101232.09;5098730;27;45434;-41
2023/05/22 02:26:30;;;;;;;;;13.67;11.67;;;;;17.10;57.27;101234.13;5099019;27;45349;-49
2023/05/22 02:28:56;;;;;;;;;11.00;11.00;;;;;17.07;57.52;101231.81;5098603;27;45496;-48
2023/05/22 02:31:21;;;;;;;;;10.67;8.67;;;;;17.03;57.47;101243.09;5098460;27;45303;-41
2023/05/22 02:33:47;;;;;;;;;17.67;13.00;;;;;16.99;57.41;101226.47;5098453;27;45377;-42
2023/05/22 02:36:13;;;;;;;;;11.33;11.33;;;;;16.96;57.58;101235.72;5099097;27;45251;-58
2023/05/22 02:38:38;;;;;;;;;13.00;11.33;;;;;16.98;58.04;101243.63;5097254;27;47876;-53
2023/05/22 02:41:04;;;;;;;;;13.67;11.00;;;;;16.98;57.94;101242.75;5098391;27;45354;-55
2023/05/22 02:43:29;;;;;;;;;11.00;10.00;;;;;16.93;57.66;101237.91;5098560;27;45411;-44
2023/05/22 02:45:55;;;;;;;;;13.67;13.67;;;;;16.92;57.53;101241.63;5097474;27;45480;-50
2023/05/22 02:48:20;;;;;;;;;15.67;13.00;;;;;16.93;57.98;101237.91;5098124;27;46200;-65
2023/05/22 02:50:47;;;;;;;;;22.00;13.00;;;;;16.89;57.87;101228.53;5097995;27;45485;-75
2023/05/22 02:53:14;;;;;;;;;14.33;13.67;;;;;16.85;57.98;101227.22;5098630;27;45384;-72
2023/05/22 02:55:40;;;;;;;;;15.67;12.33;;;;;16.82;57.95;101241.03;5098402;27;45307;-72
2023/05/22 02:58:10;;;;;;;;;28.33;23.67;;;;;16.81;58.13;101233.94;5098270;27;45350;-67
2023/05/22 03:00:36;;;;;;;;;28.67;22.33;;;;;16.80;58.21;101229.59;5098448;27;45412;-66
2023/05/22 03:03:02;;;;;;;;;42.00;34.00;;;;;16.71;58.35;101226.06;5098098;27;45351;-64
2023/05/22 03:05:27;;;;;;;;;22.00;15.33;;;;;16.63;58.39;101220.75;5098576;27;45509;-49
2023/05/22 03:07:52;;;;;;;;;14.67;12.00;;;;;16.61;58.44;101220.94;5097984;27;45328;-69
2023/05/22 03:10:18;;;;;;;;;17.33;12.67;;;;;16.66;58.16;101231.16;5097961;27;45345;-74
2023/05/22 03:12:43;;;;;;;;;18.00;13.67;;;;;16.63;58.50;101243.06;5098025;27;45876;-73
2023/05/22 03:15:09;;;;;;;;;16.67;14.67;;;;;16.63;58.41;101235.00;5098584;27;45328;-55
2023/05/22 03:17:35;;;;;;;;;15.00;12.00;;;;;16.62;58.76;101238.72;5097631;27;46294;-65
2023/05/22 03:20:00;;;;;;;;;12.00;12.00;;;;;16.53;58.48;101233.56;5097886;27;45331;-69
2023/05/22 03:22:25;;;;;;;;;11.00;11.00;;;;;16.54;58.87;101238.75;5098594;27;45354;-73
2023/05/22 03:24:51;;;;;;;;;11.67;11.00;;;;;16.52;58.69;101239.91;5098601;27;45353;-69
2023/05/22 03:27:16;;;;;;;;;12.67;10.33;;;;;16.50;58.62;101239.25;5098031;27;46815;-60
2023/05/22 03:29:42;;;;;;;;;21.33;14.33;;;;;16.46;59.07;101238.75;5096654;27;45336;-66
2023/05/22 03:32:07;;;;;;;;;16.00;15.00;;;;;16.39;58.63;101222.53;5098058;27;45228;-72
2023/05/22 03:34:32;;;;;;;;;15.00;11.67;;;;;16.40;58.82;101226.03;5097797;27;45347;-77
2023/05/22 03:36:58;;;;;;;;;16.33;13.00;;;;;16.36;58.79;101228.22;5097559;27;45432;-62
2023/05/22 03:39:23;;;;;;;;;15.67;14.67;;;;;16.34;58.90;101218.66;5097656;27;45298;-76
2023/05/22 03:41:48;;;;;;;;;18.00;14.00;;;;;16.29;58.99;101232.59;5097196;27;45286;-71
2023/05/22 03:44:14;;;;;;;;;16.00;15.00;;;;;16.28;59.15;101227.44;5097414;27;45466;-63
2023/05/22 03:46:39;;;;;;;;;16.67;14.33;;;;;16.26;59.11;101219.53;5097023;27;46276;-78
2023/05/22 03:49:05;;;;;;;;;16.67;13.00;;;;;16.23;59.45;101217.19;5097227;27;45176;-77
2023/05/22 03:51:30;;;;;;;;;18.67;13.33;;;;;16.21;59.38;101230.78;5097368;27;45305;-63
2023/05/22 03:53:56;;;;;;;;;17.67;14.00;;;;;16.20;59.71;101229.09;5097422;27;45429;-76
2023/05/22 03:56:21;;;;;;;;;19.00;15.33;;;;;16.07;59.32;101210.03;5097104;27;46055;-69
2023/05/22 03:58:46;;;;;;;;;14.67;14.00;;;;;16.09;58.85;101229.47;5097198;27;45777;-78
2023/05/22 04:01:12;;;;;;;;;19.67;14.67;;;;;16.11;59.42;101242.72;5097282;27;45587;-63
2023/05/22 04:03:37;;;;;;;;;14.00;14.00;;;;;16.13;59.52;101241.53;5096729;27;45430;-79
2023/05/22 04:06:04;;;;;;;;;11.33;11.00;;;;;16.14;59.36;101245.06;5097783;27;46881;-73
2023/05/22 04:08:29;;;;;;;;;13.67;10.33;;;;;16.14;59.43;101245.06;5097410;27;45380;-68
2023/05/22 04:10:55;;;;;;;;;16.00;13.67;;;;;16.14;59.14;101248.59;5097756;27;45472;-60
2023/05/22 04:13:20;;;;;;;;;15.00;12.00;;;;;16.16;59.45;101251.94;5098014;27;45338;-68
2023/05/22 04:15:46;;;;;;;;;12.00;12.00;;;;;16.17;59.73;101250.09;5097558;27;45367;-71
2023/05/22 04:18:12;;;;;;;;;18.00;14.00;;;;;16.07;59.13;101236.84;5097653;27;45362;-71
2023/05/22 04:20:37;;;;;;;;;17.33;13.33;;;;;16.16;59.65;101241.19;5097494;27;45520;-73
2023/05/22 04:23:03;;;;;;;;;17.00;13.33;;;;;16.25;59.24;101259.97;5098010;27;45362;-74
2023/05/22 04:25:33;;;;;;;;;13.33;11.33;;;;;16.28;59.65;101248.91;5097511;27;45427;-66
2023/05/22 04:28:01;;;;;;;;;14.00;11.33;;;;;16.28;59.36;101257.78;5097190;27;45488;-74
2023/05/22 04:30:26;;;;;;;;;15.33;14.00;;;;;16.31;59.31;101260.13;5096885;27;45401;-63
2023/05/22 04:32:52;;;;;;;;;13.67;13.33;;;;;16.35;58.97;101257.91;5098192;27;45420;-43
2023/05/22 04:35:18;;;;;;;;;18.00;13.67;;;;;16.31;58.90;101256.63;5097356;27;47325;-54
2023/05/22 04:37:46;;;;;;;;;16.00;12.00;;;;;16.36;59.07;101267.69;5097184;27;45296;-76
2023/05/22 04:40:13;;;;;;;;;26.67;15.33;;;;;16.37;59.40;101258.59;5097137;27;45445;-68
2023/05/22 04:42:41;;;;;;;;;16.00;15.33;;;;;16.38;58.94;101271.84;5097706;27;45838;-76
2023/05/22 04:45:07;;;;;;;;;21.33;13.67;;;;;16.39;59.19;101270.00;5109729;27;45273;-75
2023/05/22 04:47:33;;;;;;;;;21.33;17.00;;;;;16.44;58.89;101278.41;5113245;27;45264;-69
2023/05/22 04:49:58;;;;;;;;;19.67;14.00;;;;;16.46;58.89;101269.13;5104788;27;45220;-57
2023/05/22 04:52:27;;;;;;;;;17.00;15.00;;;;;16.46;59.07;101273.69;5112187;27;45469;-65
2023/05/22 04:54:54;;;;;;;;;15.00;14.00;;;;;16.46;59.20;101266.44;5108610;27;45256;-53
2023/05/22 04:57:20;;;;;;;;;20.00;12.33;;;;;16.46;59.01;101269.13;5104674;27;45373;-75
2023/05/22 04:59:46;;;;;;;;;20.33;16.33;;;;;16.47;59.18;101278.03;5097005;27;45346;-75
2023/05/22 05:02:13;;;;;;;;;20.33;14.00;;;;;16.49;59.08;101280.56;5097808;27;45588;-67
2023/05/22 05:04:39;;;;;;;;;20.67;15.33;;;;;16.39;58.65;101272.69;5098976;27;46287;-72
2023/05/22 05:07:05;;;;;;;;;17.33;13.33;;;;;16.51;59.06;101292.78;5098226;27;45282;-73
2023/05/22 05:09:31;;;;;;;;;18.33;17.00;;;;;16.52;58.84;101281.06;5096267;27;45440;-74
2023/05/22 05:11:57;;;;;;;;;16.00;12.00;;;;;16.55;59.08;101286.06;5096252;27;45406;-76
2023/05/22 05:14:23;;;;;;;;;11.33;11.00;;;;;16.56;59.14;101268.97;5096063;27;46044;-78
2023/05/22 05:16:50;;;;;;;;;16.67;14.67;;;;;16.61;58.90;101273.81;5095931;27;45876;-72
2023/05/22 05:19:16;;;;;;;;;21.67;14.00;;;;;16.66;58.78;101266.91;5097001;27;45320;-74
2023/05/22 05:21:41;;;;;;;;;19.33;12.00;;;;;16.67;58.57;101255.13;5097021;27;45489;-78
2023/05/22 05:24:07;;;;;;;;;21.00;14.67;;;;;16.74;58.11;101259.88;5096386;27;45962;-77
2023/05/22 05:26:32;;;;;;;;;14.33;12.33;;;;;16.79;58.20;101263.69;5097116;27;45398;-75
2023/05/22 05:28:57;;;;;;;;;17.00;14.00;;;;;16.84;58.40;101263.16;5096481;27;45436;-60
2023/05/22 05:31:23;;;;;;;;;14.33;13.00;;;;;16.89;57.79;101263.47;5096305;27;45340;-63
2023/05/22 05:33:49;;;;;;;;;20.33;18.33;;;;;16.87;57.99;101258.28;5095867;27;45448;-73
2023/05/22 05:36:15;;;;;;;;;16.67;15.00;;;;;17.03;57.88;101265.44;5096168;27;45504;-75
2023/05/22 05:38:40;;;;;;;;;17.67;14.33;;;;;17.07;57.48;101263.22;5095910;27;45145;-73
2023/05/22 05:41:06;;;;;;;;;16.67;16.00;;;;;17.16;57.46;101264.84;5096167;27;45541;-75
2023/05/22 05:43:31;;;;;;;;;16.67;12.67;;;;;17.31;57.30;101265.75;5096100;27;45331;-70
2023/05/22 05:45:57;;;;;;;;;12.33;12.00;;;;;17.01;57.39;101200.25;5095870;27;45482;-67
2023/05/22 05:48:22;;;;;;;;;19.67;14.67;;;;;17.49;56.77;101268.16;5097070;27;45405;-75
2023/05/22 05:50:47;;;;;;;;;15.33;13.00;;;;;17.60;56.83;101264.22;5095919;27;45323;-45
2023/05/22 05:53:13;;;;;;;;;14.00;14.00;;;;;17.71;56.54;101267.31;5097189;27;45319;-80
2023/05/22 05:55:38;;;;;;;;;15.33;14.00;;;;;17.83;56.35;101273.13;5096691;27;45265;-73
2023/05/22 05:58:03;;;;;;;;;22.67;14.00;;;;;17.94;55.97;101269.16;5096031;27;45593;-74
2023/05/22 06:00:29;;;;;;;;;17.00;15.33;;;;;18.04;55.99;101268.94;5096210;27;45324;-65
2023/05/22 06:02:54;;;;;;;;;16.00;15.00;;;;;18.10;55.30;101260.94;5095845;27;45541;-74
2023/05/22 06:05:21;;;;;;;;;27.67;17.00;;;;;18.18;55.41;101263.56;5095476;27;45436;-47
2023/05/22 06:07:47;;;;;;;;;19.33;15.67;;;;;18.22;54.85;101252.41;5096383;27;45374;-69
2023/05/22 06:10:13;;;;;;;;;22.33;17.67;;;;;18.30;54.96;101263.09;5096075;27;45505;-78
2023/05/22 06:12:38;;;;;;;;;23.67;18.33;;;;;18.30;54.98;101260.41;5095510;27;46437;-70
2023/05/22 06:15:06;;;;;;;;;23.00;17.67;;;;;18.36;55.02;101259.66;5095852;27;45355;-74
2023/05/22 06:17:31;;;;;;;;;31.00;26.67;;;;;18.40;55.10;101264.50;5095983;27;45477;-71
2023/05/22 06:19:56;;;;;;;;;29.33;22.67;;;;;18.40;54.71;101267.19;5095516;27;45406;-73
2023/05/22 06:22:27;;;;;;;;;36.33;32.00;;;;;18.43;54.91;101271.38;5095192;27;47203;-77
2023/05/22 06:24:53;;;;;;;;;13.00;13.00;;;;;18.48;54.78;101270.81;5095967;27;45354;-78
2023/05/22 06:27:21;;;;;;;;;23.00;16.67;;;;;18.53;54.36;101261.16;5100300;27;45357;-74
2023/05/22 06:29:47;;;;;;;;;19.33;16.67;;;;;18.65;54.19;101275.00;5101048;27;45389;-56
2023/05/22 06:32:12;;;;;;;;;22.00;18.00;;;;;18.74;54.24;101267.66;5098934;27;46383;-78
2023/05/22 06:34:39;;;;;;;;;16.67;16.67;;;;;18.87;53.76;101270.53;5099535;27;45298;-74
2023/05/22 06:37:04;;;;;;;;;19.00;15.33;;;;;18.99;53.65;101274.41;5099400;27;45567;-66
2023/05/22 06:39:30;;;;;;;;;16.67;14.33;;;;;19.11;53.69;101274.78;5099465;27;45378;-68
2023/05/22 06:41:55;;;;;;;;;20.33;18.00;;;;;19.23;53.35;101284.03;5099096;27;45797;-71
2023/05/22 06:44:20;;;;;;;;;19.67;17.00;;;;;19.40;52.92;101281.94;5098807;27;45299;-72
2023/05/22 06:46:46;;;;;;;;;17.33;14.33;;;;;19.56;52.60;101284.41;5098660;27;45411;-70
2023/05/22 06:49:11;;;;;;;;;18.67;16.00;;;;;20.12;51.65;101281.78;5098596;27;45469;-71
2023/05/22 06:51:37;;;;;;;;;19.33;16.00;;;;;21.01;50.24;101282.94;5097850;27;46485;-74
2023/05/22 06:54:05;;;;;;;;;21.00;17.00;;;;;22.15;47.22;101282.97;5098451;27;45256;-75
2023/05/22 06:56:31;;;;;;;;;17.00;13.67;;;;;23.09;45.10;101285.25;5098320;27;45339;-76
2023/05/22 06:58:57;;;;;;;;;16.00;15.00;;;;;23.99;43.58;101278.81;5098686;27;45424;-61
2023/05/22 07:01:22;;;;;;;;;20.33;17.00;;;;;24.75;42.00;101273.03;5098159;27;47088;-74
2023/05/22 07:03:48;;;;;;;;;17.50;12.75;;;;;25.38;41.31;101283.53;5098547;27;45369;-73
2023/05/22 07:06:14;;;;;;;;;17.50;14.50;;;;;26.01;39.26;101278.59;5098511;27;45457;-75
2023/05/22 07:08:39;;;;;;;;;15.00;13.75;;;;;26.64;37.84;101280.59;5098839;27;45490;-74
2023/05/22 07:11:06;;;;;;;;;20.50;15.75;;;;;27.17;37.72;101282.25;5097837;27;45877;-71
2023/05/22 07:13:31;;;;;;;;;16.00;15.00;;;;;27.77;36.93;101279.00;5098258;27;45976;-67
2023/05/22 07:15:57;;;;;;;;;18.00;14.50;;;;;28.28;36.61;101273.47;5098071;27;45330;-60
2023/05/22 07:18:22;;;;;;;;;15.25;14.50;;;;;28.91;34.98;101283.09;5098394;27;45435;-51
2023/05/22 07:20:47;;;;;;;;;14.50;14.00;;;;;29.41;34.31;101276.50;5097636;27;46776;-59
2023/05/22 07:23:13;;;;;;;;;18.75;13.00;;;;;29.83;33.09;101273.94;5096698;27;45454;-71
2023/05/22 07:25:38;;;;;;;;;15.75;12.00;;;;;30.32;32.77;101275.66;5097912;27;45406;-69
2023/05/22 07:28:07;;;;;;;;;18.25;15.25;;;;;30.94;32.17;101288.59;5097731;27;45413;-72
2023/05/22 07:30:34;;;;;;;;;16.20;13.40;;;;;31.60;31.73;101287.09;5097462;27;47057;-70
2023/05/22 07:33:00;;;;;;;;;13.00;12.60;;;;;31.96;29.31;101286.03;5097574;27;45341;-68
2023/05/22 07:35:25;;;;;;;;;15.00;15.00;;;;;32.32;29.24;101285.97;5098612;27;45333;-74
2023/05/22 07:37:51;;;;;;;;;14.25;12.00;;;;;32.76;28.92;101290.81;5098284;27;45471;-78
2023/05/22 07:40:16;;;;;;;;;19.00;14.50;;;;;33.18;28.59;101289.50;5098593;27;46238;-66
2023/05/22 07:42:41;;;;;;;;;16.00;13.75;;;;;33.64;27.40;101295.56;5098442;27;45398;-75
2023/05/22 07:45:07;;;;;;;;;13.00;12.25;;;;;34.15;27.45;101284.06;5098730;27;45353;-72
2023/05/22 07:47:33;;;;;;;;;14.25;12.00;;;;;34.69;26.28;101294.00;5098356;27;45472;-73
2023/05/22 07:49:58;;;;;;;;;16.00;13.75;;;;;34.95;26.16;101294.47;5097358;27;45330;-76
2023/05/22 07:52:23;;;;;;;;;18.75;11.50;;;;;35.12;25.90;101291.22;5097724;27;45258;-71
2023/05/22 07:54:48;;;;;;;;;15.25;13.50;;;;;34.91;26.42;101295.38;5097593;27;45269;-62
2023/05/22 07:57:14;;;;;;;;;15.75;12.00;;;;;35.14;25.91;101290.91;5097730;27;45346;-66
2023/05/22 07:59:42;;;;;;;;;17.00;12.75;;;;;34.34;26.71;101294.38;5097430;27;46351;-70
2023/05/22 08:02:08;;;;;;;;;12.80;11.20;;;;;33.50;27.10;101300.91;5097077;27;45260;-76
2023/05/22 08:04:34;;;;;;;;;14.20;13.60;;;;;32.94;27.83;101301.22;5097421;27;45350;-62
2023/05/22 08:07:00;;;;;;;;;20.00;15.50;;;;;32.66;28.78;101302.69;5097259;27;45506;-68
2023/05/22 08:09:25;;;;;;;;;14.20;13.80;;;;;32.36;29.16;101309.06;5097023;27;45563;-77
2023/05/22 08:11:51;;;;;;;;;16.00;14.00;;;;;31.86;30.34;101305.31;5096952;27;45333;-75
2023/05/22 08:14:16;;;;;;;;;17.25;14.50;;;;;31.67;29.56;101301.41;5097162;27;45344;-74
2023/05/22 08:16:42;;;;;;;;;15.75;12.75;;;;;31.95;29.61;101306.41;5097362;27;45200;-73
2023/05/22 08:19:07;;;;;;;;;15.00;14.25;;;;;31.78;29.47;101314.91;5096674;27;46257;-74
2023/05/22 08:21:33;;;;;;;;;17.25;12.25;;;;;31.39;30.18;101319.25;5096862;27;45443;-76
2023/05/22 08:23:59;;;;;;;;;18.50;13.00;;;;;31.15;30.53;101310.66;5097239;27;45486;-69
2023/05/22 08:26:25;;;;;;;;;19.60;15.20;;;;;31.13;30.46;101312.81;5097199;27;45396;-71
2023/05/22 08:28:51;;;;;;;;;16.25;13.75;;;;;30.95;30.77;101319.63;5096752;27;45349;-71
2023/05/22 08:31:17;;;;;;;;;17.40;14.20;;;;;31.13;30.39;101313.66;5096935;27;45457;-77
2023/05/22 08:33:42;;;;;;;;;23.25;16.75;;;;;31.22;30.42;101317.50;5097000;27;45327;-76
2023/05/22 08:36:11;;;;;;;;;17.00;17.00;;;;;31.40;30.20;101313.47;5096675;27;45335;-77
2023/05/22 08:38:37;;;;;;;;;21.80;16.80;;;;;31.34;30.12;101316.47;5096805;27;45237;-71
2023/05/22 08:41:04;;;;;;;;;19.00;17.00;;;;;31.23;30.67;101318.38;5096725;27;45204;-64
2023/05/22 08:43:30;;;;;;;;;22.60;15.20;;;;;31.17;30.17;101325.75;5096849;27;45648;-74
2023/05/22 08:46:02;;;;;;;;;19.25;14.25;;;;;31.19;31.09;101320.81;5096813;27;45358;-53
2023/05/22 08:48:33;;;;;;;;;15.40;12.80;;;;;31.35;30.39;101318.13;5095723;27;45998;-54
2023/05/22 08:51:03;;;;;;;;;18.60;16.20;;;;;32.17;29.55;101311.59;5096500;27;45330;-71
2023/05/22 08:53:32;;;;;;;;;15.80;14.40;;;;;32.75;28.93;101320.28;5096421;27;45433;-73
2023/05/22 08:55:58;;;;;;;;;17.60;16.00;;;;;33.57;27.41;101316.31;5096487;27;45501;-66
2023/05/22 08:58:25;;;;;;;;;14.80;14.60;;;;;33.74;26.71;101316.72;5096185;27;46367;-74
2023/05/22 09:00:51;;;;;;;;;20.60;17.60;;;;;33.66;27.23;101322.84;5096232;27;45515;-73
2023/05/22 09:03:20;;;;;;;;;19.00;15.00;;;;;33.48;28.34;101322.44;5095081;27;45330;-76
2023/05/22 09:05:46;;;;;;;;;16.60;13.80;;;;;34.40;27.49;101312.53;5096632;27;45512;-71
2023/05/22 09:08:11;;;;;;;;;17.50;16.50;;;;;35.18;27.68;101336.22;5095829;27;45521;-63
2023/05/22 09:10:36;;;;;;;;;14.50;12.50;;;;;36.49;24.72;101323.28;5095983;27;45872;-69
2023/05/22 09:13:04;;;;;;;;;15.75;12.25;;;;;37.06;24.42;101321.03;5096220;27;45374;-70
2023/05/22 09:15:31;;;;;;;;;15.00;13.80;;;;;37.03;23.96;101320.81;5096304;27;45452;-66
2023/05/22 09:17:57;;;;;;;;;17.20;13.80;;;;;36.98;24.05;101321.75;5095962;27;47011;-58
2023/05/22 09:20:23;;;;;;;;;18.00;15.40;;;;;36.76;24.04;101329.97;5095718;27;45438;-64
2023/05/22 09:22:48;;;;;;;;;18.50;12.00;;;;;36.24;24.96;101310.75;5095819;27;45419;-58
2023/05/22 09:25:17;;;;;;;;;12.50;11.00;;;;;35.95;25.36;101336.72;5096077;27;45344;-71
2023/05/22 09:27:49;;;;;;;;;17.80;11.60;;;;;35.32;25.56;101339.09;5095587;27;46118;-65
2023/05/22 09:30:18;;;;;;;;;17.00;12.60;;;;;34.82;26.02;101328.38;5095908;27;45341;-62
2023/05/22 09:32:47;;;;;;;;;12.20;12.00;;;;;34.19;26.41;101311.94;5095849;27;45568;-72
2023/05/22 09:35:15;;;;;;;;;17.80;14.60;;;;;33.52;27.76;101330.97;5095990;27;45476;-70
2023/05/22 09:37:41;;;;;;;;;15.60;13.00;;;;;32.74;28.59;101332.41;5096044;27;45269;-73
2023/05/22 09:40:09;;;;;;;;;14.75;14.25;;;;;32.94;28.57;101333.47;5096058;27;45334;-72
2023/05/22 09:42:35;;;;;;;;;18.80;14.60;;;;;33.53;27.30;101322.38;5095815;27;45402;-72
2023/05/22 09:45:04;;;;;;;;;22.25;15.75;;;;;33.62;28.17;101325.34;5096127;27;45363;-64
2023/05/22 09:47:30;;;;;;;;;16.00;14.20;;;;;33.71;27.67;101320.91;5095873;27;45428;-72
2023/05/22 09:49:59;;;;;;;;;17.25;16.50;;;;;34.02;27.79;101320.66;5096065;27;45317;-44
2023/05/22 09:52:27;;;;;;;;;18.80;15.40;;;;;34.80;26.81;101327.84;5095906;27;45389;-64
2023/05/22 09:54:55;;;;;;;;;18.00;13.80;;;;;35.06;26.44;101322.84;5095992;27;45403;-70
2023/05/22 09:57:23;;;;;;;;;15.80;12.40;;;;;36.51;25.12;101320.25;5095503;27;45414;-68
2023/05/22 09:59:56;;;;;;;;;14.60;13.80;;;;;36.88;24.51;101308.91;5095542;27;45383;-72
2023/05/22 10:02:23;;;;;;;;;15.80;14.60;;;;;36.99;24.40;101308.72;5098815;27;45562;-69
2023/05/22 10:04:49;;;;;;;;;17.20;15.00;;;;;37.42;23.68;101312.75;5099512;27;45802;-71
2023/05/22 10:07:18;;;;;;;;;13.00;13.00;;;;;38.48;23.11;101309.50;5098500;27;46329;-70
2023/05/22 10:10:00;;;;;;;;;15.00;13.80;;;;;39.41;22.65;101311.97;5098836;27;45681;-71
2023/05/22 10:12:30;;;;;;;;;17.40;14.80;;;;;40.18;20.91;101313.00;5098657;27;45387;-69
2023/05/22 10:14:56;;;;;;;;;12.80;12.60;;;;;40.96;20.39;101304.28;5099406;27;45228;-69
2023/05/22 10:17:22;;;;;;;;;14.80;14.80;;;;;41.73;19.81;101304.78;5098613;27;46403;-69
2023/05/22 10:19:49;;;;;;;;;16.00;14.00;;;;;42.09;19.98;101281.69;5099042;27;45433;-68
2023/05/22 10:22:19;;;;;;;;;16.60;13.00;;;;;42.28;19.71;101302.72;5098824;27;45438;-64
2023/05/22 10:24:46;;;;;;;;;15.60;13.60;;;;;42.39;19.99;101298.25;5099111;27;45271;-65
2023/05/22 10:27:11;;;;;;;;;16.00;14.20;;;;;42.64;19.81;101304.69;5098938;27;45980;-69
2023/05/22 10:29:51;;;;;;;;;13.75;12.25;;;;;42.77;20.32;101297.09;5098472;27;45436;-60
2023/05/22 10:32:26;;;;;;;;;14.00;11.40;;;;;42.99;19.88;101296.59;5098872;27;45465;-66
2023/05/22 10:35:33;;;;;;;;;18.60;15.20;;;;;43.05;19.29;101292.41;5098847;27;45526;-66
2023/05/22 10:38:36;;;;;;;;;17.00;15.80;;;;;43.09;19.53;101296.13;5095903;27;45503;-66
2023/05/22 10:41:05;;;;;;;;;15.40;13.60;;;;;43.17;19.86;101294.34;5096159;27;45459;-68
2023/05/22 10:43:31;;;;;;;;;18.80;14.60;;;;;42.67;18.88;101290.00;5096352;27;45323;-71
2023/05/22 10:46:04;;;;;;;;;18.00;15.00;;;;;42.52;19.81;101294.31;5096537;27;45544;-71
2023/05/22 10:48:37;;;;;;;;;16.40;15.00;;;;;41.24;20.06;101295.34;5095888;27;46386;-69
2023/05/22 10:51:03;;;;;;;;;20.40;16.60;;;;;40.36;21.64;101300.63;5095871;27;45289;-51
2023/05/22 10:53:31;;;;;;;;;16.80;15.20;;;;;40.39;20.91;101288.00;5095785;27;45363;-61
2023/05/22 10:56:01;;;;;;;;;18.60;15.60;;;;;40.44;21.12;101290.59;5095572;27;45413;-65
2023/05/22 10:58:36;;;;;;;;;17.80;16.20;;;;;39.95;21.42;101281.78;5096111;27;46118;-76
2023/05/22 11:01:07;;;;;;;;;16.20;14.20;;;;;39.35;22.21;101282.66;5095599;27;45525;-65
2023/05/22 11:04:05;;;;;;;;;16.60;14.20;;;;;37.38;23.49;101283.94;5096016;27;45515;-69
2023/05/22 11:06:33;;;;;;;;;20.40;14.00;;;;;35.90;25.47;101292.50;5096034;27;45432;-70
2023/05/22 11:08:59;;;;;;;;;19.00;15.40;;;;;35.07;26.06;101287.72;5095310;27;46142;-66
2023/05/22 11:11:26;;;;;;;;;14.75;14.75;;;;;34.34;27.21;101292.41;5095021;27;45254;-66